METAR AND TAF INFORMATION
METAR FOR SBCH
ADDS - METARS form results

(1458 UTC 18 October 2019)
Data provider http://aviationweather.gov/metar/data/
 
METAR text: SBCH 181400Z 03006KT 9999 FEW010 SCT020 FEW030TCU BKN080 25/20 Q1017
Conditions at: SBCH (CHAPECO , BR) observed 1400 UTC 18 October 2019
Temperature: 25.0°C (77°F)
Dewpoint: 20.0°C (68°F) [RH = 74%]
Pressure (altimeter): 30.03 inches Hg (1017.0 mb)
Winds: from the NNE (30 degrees) at 7 MPH (6 knots; 3.1 m/s)
Visibility: 6 or more miles (10+ km)
Ceiling: 8000 feet AGL
Clouds: few clouds at 1000 feet AGL
scattered clouds at 2000 feet AGL
few clouds at 3000 feet AGL
broken clouds at 8000 feet AGL
Weather: no significant weather observed at this time

 AIRPORT MAP

 RUNWAY INFORMATION
Runway 11 Runway length 6768 ft Runway width 148 ft
Runway elevation 0 ft Runway displaced threshold 0 ft Runway heading 0
Runway 29 Runway length 6768 ft Runway width 148 ft
Runway elevation 0 ft Runway displaced threshold 0 ft Runway heading 0

 AIRPORT FREQUENCIES
Type AFIS Name RDO Frequency 130.85 MHZ

 AIRPORT NEAR NAVIGATION AIDS
Type VOR-DME Name Chapeco Frequency 116100 KHZ
Type NDB Name Chapeco Frequency 173 KHZ



Powered by Virtual Airlines Manager [v2.6.2]